Time;durP1;ratioP1;P1;durP2;ratioP2;P2;SDS_P1;SDS_P2;PMS_P1;PMS_P2;Temp;Humidity;BMP_temperature;BMP_pressure;BME280_temperature;BME280_humidity;BME280_pressure;Samples;Min_cycle;Max_cycle;Signal;HPM_P1;HPM_P2
2021/09/06 00:02:07;;;;;;;5.93;4.10;;;;;;;;;;5095753;28;20048;-69
2021/09/06 00:04:33;;;;;;;4.85;3.60;;;;;;;;;;5096169;28;20590;-80
2021/09/06 00:07:00;;;;;;;7.88;3.72;;;;;;;;;;5095990;28;20032;-69
2021/09/06 00:09:26;;;;;;;6.20;3.80;;;;;;;;;;5096048;28;20099;-69
2021/09/06 00:11:52;;;;;;;4.97;3.92;;;;;;;;;;5096065;28;20047;-72
2021/09/06 00:14:18;;;;;;;5.75;4.00;;;;;;;;;;5095747;28;20036;-81
2021/09/06 00:16:44;;;;;;;5.70;3.83;;;;;;;;;;5095423;28;20122;-69
2021/09/06 00:19:10;;;;;;;4.28;3.80;;;;;;;;;;5095925;28;20378;-69
2021/09/06 00:21:36;;;;;;;5.32;3.88;;;;;;;;;;5095659;28;20036;-80
2021/09/06 00:24:02;;;;;;;5.85;4.25;;;;;;;;;;5095421;28;20499;-70
2021/09/06 00:26:28;;;;;;;9.55;4.10;;;;;;;;;;5095185;28;20457;-70
2021/09/06 00:28:54;;;;;;;4.72;3.67;;;;;;;;;;5095519;28;20040;-78
2021/09/06 00:31:21;;;;;;;4.60;3.90;;;;;;;;;;5095320;28;20036;-81
2021/09/06 00:33:47;;;;;;;6.75;3.90;;;;;;;;;;5095255;28;20027;-69
2021/09/06 00:36:13;;;;;;;6.78;3.75;;;;;;;;;;5095370;28;20040;-79
2021/09/06 00:38:39;;;;;;;6.15;4.18;;;;;;;;;;5089679;28;20045;-81
2021/09/06 00:41:05;;;;;;;6.25;4.20;;;;;;;;;;5075492;28;20048;-69
2021/09/06 00:43:31;;;;;;;6.18;4.10;;;;;;;;;;5075126;28;20039;-79
2021/09/06 00:45:57;;;;;;;4.20;3.80;;;;;;;;;;5074873;28;20036;-81
2021/09/06 00:48:25;;;;;;;6.55;4.15;;;;;;;;;;5074205;28;20070;-70
2021/09/06 00:50:53;;;;;;;5.03;3.97;;;;;;;;;;5074950;28;20040;-69
2021/09/06 00:53:19;;;;;;;6.22;3.92;;;;;;;;;;5075010;28;20033;-69
2021/09/06 00:55:45;;;;;;;8.35;4.20;;;;;;;;;;5074718;28;20128;-69
2021/09/06 00:58:11;;;;;;;9.02;4.07;;;;;;;;;;5073135;28;20477;-70
2021/09/06 01:00:38;;;;;;;5.68;3.80;;;;;;;;;;5071563;28;20044;-69
2021/09/06 01:03:04;;;;;;;4.78;3.85;;;;;;;;;;5071614;28;20427;-69
2021/09/06 01:05:30;;;;;;;6.63;3.80;;;;;;;;;;5073428;28;20033;-70
2021/09/06 01:07:56;;;;;;;5.93;4.38;;;;;;;;;;5074410;28;20031;-81
2021/09/06 01:10:23;;;;;;;6.80;4.10;;;;;;;;;;5074310;28;20043;-69
2021/09/06 01:12:49;;;;;;;8.25;4.50;;;;;;;;;;5074041;28;20036;-69
2021/09/06 01:15:15;;;;;;;7.97;4.40;;;;;;;;;;5074124;28;20469;-69
2021/09/06 01:17:42;;;;;;;11.55;4.75;;;;;;;;;;5074318;28;20032;-69
2021/09/06 01:20:09;;;;;;;5.20;4.43;;;;;;;;;;5073695;28;20374;-69
2021/09/06 01:22:35;;;;;;;8.85;4.72;;;;;;;;;;5074211;28;20036;-81
2021/09/06 01:25:02;;;;;;;5.43;3.95;;;;;;;;;;5074098;28;20107;-69
2021/09/06 01:27:28;;;;;;;8.32;4.30;;;;;;;;;;5074313;28;20087;-81
2021/09/06 01:29:54;;;;;;;10.30;4.60;;;;;;;;;;5073847;28;20472;-80
2021/09/06 01:32:20;;;;;;;7.70;3.92;;;;;;;;;;5074141;28;20031;-69
2021/09/06 01:34:46;;;;;;;7.97;4.85;;;;;;;;;;5073512;28;20033;-69
2021/09/06 01:37:12;;;;;;;8.48;4.75;;;;;;;;;;5073574;28;20520;-72
2021/09/06 01:39:38;;;;;;;11.98;4.28;;;;;;;;;;5087493;28;20052;-81
2021/09/06 01:42:04;;;;;;;9.70;4.03;;;;;;;;;;5093849;28;20040;-69
2021/09/06 01:44:30;;;;;;;4.75;3.70;;;;;;;;;;5093778;28;20031;-69
2021/09/06 01:46:56;;;;;;;5.72;4.47;;;;;;;;;;5093924;28;20064;-82
2021/09/06 01:49:22;;;;;;;5.22;4.22;;;;;;;;;;5093950;28;20028;-69
2021/09/06 01:51:48;;;;;;;6.47;3.95;;;;;;;;;;5093641;28;20036;-70
2021/09/06 01:54:14;;;;;;;5.97;4.35;;;;;;;;;;5093413;28;20468;-69
2021/09/06 01:56:40;;;;;;;6.05;4.03;;;;;;;;;;5093577;28;20035;-69
2021/09/06 01:59:06;;;;;;;6.78;3.65;;;;;;;;;;5093474;28;20028;-69
2021/09/06 02:01:32;;;;;;;9.13;3.80;;;;;;;;;;5093772;28;20044;-77
2021/09/06 02:03:58;;;;;;;4.95;3.88;;;;;;;;;;5093535;28;20097;-69
2021/09/06 02:06:24;;;;;;;5.93;4.03;;;;;;;;;;5093749;28;20480;-69
2021/09/06 02:08:50;;;;;;;5.88;3.72;;;;;;;;;;5094267;28;20116;-69
2021/09/06 02:11:16;;;;;;;7.63;4.05;;;;;;;;;;5093588;28;20074;-70
2021/09/06 02:13:42;;;;;;;5.75;4.05;;;;;;;;;;5093570;28;20110;-69
2021/09/06 02:16:08;;;;;;;6.10;4.22;;;;;;;;;;5093382;28;20046;-69
2021/09/06 02:18:34;;;;;;;8.43;3.83;;;;;;;;;;5093574;28;20058;-81
2021/09/06 02:21:00;;;;;;;7.80;4.25;;;;;;;;;;5093477;28;20047;-69
2021/09/06 02:23:26;;;;;;;5.80;3.63;;;;;;;;;;5093414;28;20097;-80
2021/09/06 02:25:53;;;;;;;5.97;3.65;;;;;;;;;;5093411;28;20150;-80
2021/09/06 02:28:19;;;;;;;6.07;4.00;;;;;;;;;;5093346;28;20031;-69
2021/09/06 02:30:45;;;;;;;6.82;4.28;;;;;;;;;;5093356;28;20039;-69
2021/09/06 02:33:11;;;;;;;6.72;3.88;;;;;;;;;;5093108;28;20036;-68
2021/09/06 02:35:37;;;;;;;6.15;4.35;;;;;;;;;;5093324;28;20056;-69
2021/09/06 02:38:03;;;;;;;8.07;4.65;;;;;;;;;;5093237;28;20085;-81
2021/09/06 02:40:29;;;;;;;7.50;4.07;;;;;;;;;;5093086;28;20044;-69
2021/09/06 02:42:55;;;;;;;7.28;4.15;;;;;;;;;;5093139;28;20541;-81
2021/09/06 02:45:21;;;;;;;7.38;3.95;;;;;;;;;;5093158;28;20028;-69
2021/09/06 02:47:48;;;;;;;4.85;4.03;;;;;;;;;;5093393;28;20032;-69
2021/09/06 02:50:14;;;;;;;6.82;3.78;;;;;;;;;;5093233;28;20507;-81
2021/09/06 02:52:41;;;;;;;6.28;3.95;;;;;;;;;;5092937;28;20157;-69
2021/09/06 02:55:07;;;;;;;5.47;4.15;;;;;;;;;;5093063;28;20496;-81
2021/09/06 02:57:33;;;;;;;7.20;3.88;;;;;;;;;;5093189;28;20039;-79
2021/09/06 02:59:59;;;;;;;10.95;4.45;;;;;;;;;;5093042;28;20043;-69
2021/09/06 03:02:26;;;;;;;12.02;4.10;;;;;;;;;;5092763;28;20040;-69
2021/09/06 03:04:52;;;;;;;5.57;4.25;;;;;;;;;;5093018;28;20040;-69
2021/09/06 03:07:18;;;;;;;6.57;4.10;;;;;;;;;;5092930;28;20028;-69
2021/09/06 03:09:44;;;;;;;7.05;4.28;;;;;;;;;;5092677;28;20039;-69
2021/09/06 03:12:10;;;;;;;6.05;4.47;;;;;;;;;;5095065;28;20093;-81
2021/09/06 03:14:36;;;;;;;8.63;3.90;;;;;;;;;;5096831;28;20028;-81
2021/09/06 03:17:02;;;;;;;7.68;4.38;;;;;;;;;;5096783;28;20465;-70
2021/09/06 03:19:28;;;;;;;6.47;4.20;;;;;;;;;;5096729;28;20079;-69
2021/09/06 03:21:54;;;;;;;6.38;4.30;;;;;;;;;;5096455;28;20044;-82
2021/09/06 03:24:20;;;;;;;7.32;4.10;;;;;;;;;;5096505;28;20043;-68
2021/09/06 03:26:46;;;;;;;7.38;4.55;;;;;;;;;;5096711;28;20097;-69
2021/09/06 03:29:12;;;;;;;11.07;4.40;;;;;;;;;;5096935;28;20093;-77
2021/09/06 03:31:38;;;;;;;8.15;4.38;;;;;;;;;;5096705;28;20078;-69
2021/09/06 03:34:04;;;;;;;6.93;4.15;;;;;;;;;;5096849;28;20134;-69
2021/09/06 03:36:30;;;;;;;8.13;4.40;;;;;;;;;;5096619;28;20107;-69
2021/09/06 03:38:56;;;;;;;6.35;4.07;;;;;;;;;;5096250;28;20407;-81
2021/09/06 03:41:23;;;;;;;6.07;4.30;;;;;;;;;;5096650;28;20040;-69
2021/09/06 03:43:49;;;;;;;7.03;4.07;;;;;;;;;;5096610;28;20066;-81
2021/09/06 03:46:15;;;;;;;7.00;4.45;;;;;;;;;;5096618;28;20378;-68
2021/09/06 03:48:42;;;;;;;6.57;4.47;;;;;;;;;;5096366;28;20028;-69
2021/09/06 03:51:08;;;;;;;15.73;4.80;;;;;;;;;;5096053;28;20032;-69
2021/09/06 03:53:34;;;;;;;8.98;4.82;;;;;;;;;;5096286;28;20498;-69
2021/09/06 03:56:00;;;;;;;8.05;4.85;;;;;;;;;;5096304;28;20075;-69
2021/09/06 03:58:27;;;;;;;8.32;4.30;;;;;;;;;;5095926;28;20036;-69
2021/09/06 04:00:53;;;;;;;7.25;4.60;;;;;;;;;;5096149;28;20093;-78
2021/09/06 04:03:19;;;;;;;10.13;4.88;;;;;;;;;;5095841;28;20039;-69
2021/09/06 04:05:45;;;;;;;8.88;4.70;;;;;;;;;;5096003;28;20476;-69
2021/09/06 04:08:11;;;;;;;9.00;4.60;;;;;;;;;;5096027;28;20079;-69
2021/09/06 04:10:37;;;;;;;11.38;4.05;;;;;;;;;;5096082;28;20157;-70
2021/09/06 04:13:03;;;;;;;12.18;5.15;;;;;;;;;;5095881;28;20097;-68
2021/09/06 04:15:29;;;;;;;8.10;4.50;;;;;;;;;;5095707;28;20036;-69
2021/09/06 04:17:55;;;;;;;12.32;4.65;;;;;;;;;;5095944;28;20032;-79
2021/09/06 04:20:21;;;;;;;12.57;4.75;;;;;;;;;;5077473;28;20073;-70
2021/09/06 04:22:48;;;;;;;11.43;4.90;;;;;;;;;;5094430;28;20085;-69
2021/09/06 04:25:14;;;;;;;9.88;4.53;;;;;;;;;;5095710;28;20028;-69
2021/09/06 04:27:40;;;;;;;9.27;4.70;;;;;;;;;;5095619;28;20457;-81
2021/09/06 04:30:06;;;;;;;9.63;4.57;;;;;;;;;;5095582;28;20028;-69
2021/09/06 04:32:32;;;;;;;13.90;5.00;;;;;;;;;;5095225;28;20042;-79
2021/09/06 04:34:58;;;;;;;15.23;4.40;;;;;;;;;;5095092;28;20036;-69
2021/09/06 04:37:26;;;;;;;9.13;4.60;;;;;;;;;;5095389;28;20086;-69
2021/09/06 04:39:52;;;;;;;15.50;4.43;;;;;;;;;;5095312;28;20055;-69
2021/09/06 04:42:18;;;;;;;7.70;4.63;;;;;;;;;;5095314;28;20106;-81
2021/09/06 04:44:44;;;;;;;11.23;4.20;;;;;;;;;;5095206;28;20071;-69
2021/09/06 04:47:10;;;;;;;12.07;4.72;;;;;;;;;;5095053;28;20028;-69
2021/09/06 04:49:36;;;;;;;12.60;4.57;;;;;;;;;;5094650;28;20480;-69
2021/09/06 04:52:03;;;;;;;11.07;5.00;;;;;;;;;;5095476;28;20032;-69
2021/09/06 04:54:29;;;;;;;8.45;3.92;;;;;;;;;;5095217;28;20032;-69
2021/09/06 04:56:55;;;;;;;11.18;4.53;;;;;;;;;;5095099;28;20040;-81
2021/09/06 04:59:22;;;;;;;13.25;5.15;;;;;;;;;;5094884;28;20481;-69
2021/09/06 05:01:48;;;;;;;13.27;4.75;;;;;;;;;;5094910;28;20408;-69
2021/09/06 05:04:14;;;;;;;10.25;4.80;;;;;;;;;;5094798;28;20165;-81
2021/09/06 05:06:40;;;;;;;12.90;4.78;;;;;;;;;;5094720;28;20062;-69
2021/09/06 05:09:06;;;;;;;18.58;4.82;;;;;;;;;;5094777;28;20071;-69
2021/09/06 05:11:33;;;;;;;12.27;5.03;;;;;;;;;;5094760;28;20032;-79
2021/09/06 05:13:59;;;;;;;12.77;5.38;;;;;;;;;;5094765;28;20074;-82
2021/09/06 05:16:25;;;;;;;10.95;4.97;;;;;;;;;;5094790;28;20047;-68
2021/09/06 05:18:52;;;;;;;9.25;4.45;;;;;;;;;;5094449;28;20564;-68
2021/09/06 05:21:18;;;;;;;6.65;4.30;;;;;;;;;;5094380;28;20082;-69
2021/09/06 05:23:44;;;;;;;8.40;4.55;;;;;;;;;;5094918;28;20024;-81
2021/09/06 05:26:10;;;;;;;10.10;4.28;;;;;;;;;;5094349;28;20491;-69
2021/09/06 05:28:36;;;;;;;10.93;5.13;;;;;;;;;;5094623;28;20028;-69
2021/09/06 05:31:03;;;;;;;10.75;4.88;;;;;;;;;;5094451;28;20032;-73
2021/09/06 05:33:32;;;;;;;8.73;5.15;;;;;;;;;;5094178;28;20046;-69
2021/09/06 05:35:58;;;;;;;8.23;4.80;;;;;;;;;;5093899;28;20476;-68
2021/09/06 05:38:25;;;;;;;9.73;4.57;;;;;;;;;;5094294;28;20052;-72
2021/09/06 05:40:51;;;;;;;8.93;5.10;;;;;;;;;;5094579;28;20560;-69
2021/09/06 05:43:17;;;;;;;9.73;4.57;;;;;;;;;;5094326;28;20056;-69
2021/09/06 05:45:43;;;;;;;8.20;4.68;;;;;;;;;;5094079;28;20032;-68
2021/09/06 05:48:09;;;;;;;9.60;4.43;;;;;;;;;;5094211;28;20037;-82
2021/09/06 05:50:35;;;;;;;7.50;4.40;;;;;;;;;;5094121;28;20029;-81
2021/09/06 05:53:02;;;;;;;7.35;4.78;;;;;;;;;;5093715;28;20408;-68
2021/09/06 05:55:28;;;;;;;10.50;4.68;;;;;;;;;;5093901;28;20040;-74
2021/09/06 05:57:54;;;;;;;7.40;5.00;;;;;;;;;;5093871;28;20059;-69
2021/09/06 06:00:20;;;;;;;10.02;4.68;;;;;;;;;;5093639;28;20024;-68
2021/09/06 06:02:46;;;;;;;10.48;4.72;;;;;;;;;;5093521;28;20035;-69
2021/09/06 06:05:12;;;;;;;8.35;4.35;;;;;;;;;;5093802;28;20036;-69
2021/09/06 06:07:38;;;;;;;6.38;4.93;;;;;;;;;;5093813;28;20040;-81
2021/09/06 06:10:04;;;;;;;9.00;4.75;;;;;;;;;;5093725;28;20078;-82
2021/09/06 06:12:30;;;;;;;11.20;4.43;;;;;;;;;;5093675;28;20103;-83
2021/09/06 06:14:57;;;;;;;39.70;5.50;;;;;;;;;;5093570;28;20105;-69
2021/09/06 06:17:24;;;;;;;24.15;5.40;;;;;;;;;;5093828;28;20040;-82
2021/09/06 06:19:51;;;;;;;27.83;5.05;;;;;;;;;;5093547;28;20032;-70
2021/09/06 06:22:17;;;;;;;16.30;4.82;;;;;;;;;;5093232;28;20472;-69
2021/09/06 06:24:43;;;;;;;18.63;4.93;;;;;;;;;;5093386;28;20032;-82
2021/09/06 06:27:09;;;;;;;11.63;4.55;;;;;;;;;;5093376;28;20102;-69
2021/09/06 06:29:35;;;;;;;15.18;4.85;;;;;;;;;;5093555;28;20032;-83
2021/09/06 06:32:01;;;;;;;11.65;4.57;;;;;;;;;;5093415;28;20081;-69
2021/09/06 06:34:27;;;;;;;9.50;4.57;;;;;;;;;;5093206;28;20036;-69
2021/09/06 06:36:53;;;;;;;11.60;4.65;;;;;;;;;;5093621;28;20028;-68
2021/09/06 06:39:19;;;;;;;7.43;4.40;;;;;;;;;;5093069;28;20052;-82
2021/09/06 06:41:46;;;;;;;6.43;4.15;;;;;;;;;;5093427;28;20040;-73
2021/09/06 06:44:12;;;;;;;6.70;4.43;;;;;;;;;;5093158;28;20117;-70
2021/09/06 06:46:39;;;;;;;7.57;4.45;;;;;;;;;;5092783;28;20036;-69
2021/09/06 06:49:05;;;;;;;5.88;4.30;;;;;;;;;;5093042;28;20496;-83
2021/09/06 06:51:31;;;;;;;5.80;4.60;;;;;;;;;;5092972;28;20047;-69
2021/09/06 06:53:57;;;;;;;6.88;4.60;;;;;;;;;;5092833;28;20516;-68
2021/09/06 06:56:23;;;;;;;9.57;4.43;;;;;;;;;;5092968;28;20032;-83
2021/09/06 06:58:49;;;;;;;8.32;4.88;;;;;;;;;;5093054;28;20043;-69
2021/09/06 07:01:15;;;;;;;8.45;4.32;;;;;;;;;;5092763;28;20412;-69
2021/09/06 07:03:42;;;;;;;9.48;4.53;;;;;;;;;;5093181;28;20051;-69
2021/09/06 07:06:08;;;;;;;6.68;4.70;;;;;;;;;;5093080;28;20400;-69
2021/09/06 07:08:34;;;;;;;5.30;3.88;;;;;;;;;;5093163;28;20107;-69
2021/09/06 07:11:00;;;;;;;8.43;4.57;;;;;;;;;;5093021;28;20083;-69
2021/09/06 07:13:26;;;;;;;7.97;4.68;;;;;;;;;;5092849;28;20400;-83
2021/09/06 07:15:52;;;;;;;9.60;4.68;;;;;;;;;;5093108;28;20089;-73
2021/09/06 07:18:18;;;;;;;7.07;4.50;;;;;;;;;;5092909;28;20028;-69
2021/09/06 07:20:44;;;;;;;12.90;4.65;;;;;;;;;;5093079;28;20080;-82
2021/09/06 07:23:10;;;;;;;5.53;4.65;;;;;;;;;;5092847;28;20032;-68
2021/09/06 07:25:36;;;;;;;8.57;4.75;;;;;;;;;;5092831;28;20468;-69
2021/09/06 07:28:02;;;;;;;7.53;4.70;;;;;;;;;;5092615;28;20062;-73
2021/09/06 07:30:28;;;;;;;10.00;4.78;;;;;;;;;;5093102;28;20110;-80
2021/09/06 07:32:56;;;;;;;8.57;4.53;;;;;;;;;;5092895;28;20121;-69
2021/09/06 07:35:23;;;;;;;5.95;3.80;;;;;;;;;;5092534;28;20480;-71
2021/09/06 07:37:49;;;;;;;10.80;4.70;;;;;;;;;;5092825;28;20048;-69
2021/09/06 07:40:15;;;;;;;8.30;4.85;;;;;;;;;;5092294;28;20044;-73
2021/09/06 07:42:41;;;;;;;6.70;4.32;;;;;;;;;;5092677;28;20393;-82
2021/09/06 07:45:08;;;;;;;7.28;4.72;;;;;;;;;;5092496;28;20020;-82
2021/09/06 07:47:34;;;;;;;7.15;4.45;;;;;;;;;;5092659;28;20032;-69
2021/09/06 07:50:00;;;;;;;6.53;4.53;;;;;;;;;;5092560;28;20036;-69
2021/09/06 07:52:27;;;;;;;8.05;4.30;;;;;;;;;;5092417;28;20076;-69
2021/09/06 07:54:53;;;;;;;14.07;4.90;;;;;;;;;;5092529;28;20056;-69
2021/09/06 07:57:19;;;;;;;8.80;4.50;;;;;;;;;;5093403;28;20039;-69
2021/09/06 07:59:45;;;;;;;6.32;4.47;;;;;;;;;;5095962;28;20035;-83
2021/09/06 08:02:11;;;;;;;8.38;4.22;;;;;;;;;;5096087;28;20048;-83
2021/09/06 08:04:37;;;;;;;8.32;4.75;;;;;;;;;;5096127;28;20031;-83
2021/09/06 08:07:03;;;;;;;7.43;4.63;;;;;;;;;;5095921;28;20039;-69
2021/09/06 08:09:29;;;;;;;7.97;4.40;;;;;;;;;;5095759;28;20035;-68
2021/09/06 08:11:56;;;;;;;8.70;4.18;;;;;;;;;;5095973;28;20028;-69
2021/09/06 08:14:23;;;;;;;8.93;4.10;;;;;;;;;;5095579;28;20027;-68
2021/09/06 08:16:49;;;;;;;5.30;4.20;;;;;;;;;;5095943;28;20040;-68
2021/09/06 08:19:15;;;;;;;9.20;4.25;;;;;;;;;;5095836;28;20031;-82
2021/09/06 08:21:41;;;;;;;8.48;4.63;;;;;;;;;;5095635;28;20079;-83
2021/09/06 08:24:07;;;;;;;6.78;4.30;;;;;;;;;;5095289;28;20039;-69
2021/09/06 08:26:33;;;;;;;7.72;4.55;;;;;;;;;;5095683;28;20101;-81
2021/09/06 08:28:59;;;;;;;8.77;4.53;;;;;;;;;;5095690;28;20043;-69
2021/09/06 08:31:26;;;;;;;14.35;4.85;;;;;;;;;;5095537;28;20480;-69
2021/09/06 08:33:53;;;;;;;8.57;4.20;;;;;;;;;;5095517;28;20465;-70
2021/09/06 08:36:19;;;;;;;7.82;4.45;;;;;;;;;;5095283;28;20473;-83
2021/09/06 08:38:45;;;;;;;15.27;5.55;;;;;;;;;;5088794;28;20072;-82
2021/09/06 08:41:11;;;;;;;6.78;4.35;;;;;;;;;;5074965;28;20079;-69
2021/09/06 08:43:37;;;;;;;6.57;4.30;;;;;;;;;;5075028;28;20028;-69
2021/09/06 08:46:03;;;;;;;5.65;4.45;;;;;;;;;;5074950;28;20046;-71
2021/09/06 08:48:29;;;;;;;6.13;4.47;;;;;;;;;;5075009;28;20036;-69
2021/09/06 08:50:56;;;;;;;7.55;4.20;;;;;;;;;;5074966;28;20505;-69
2021/09/06 08:53:22;;;;;;;9.63;4.80;;;;;;;;;;5074885;28;20409;-69
2021/09/06 08:55:49;;;;;;;11.30;4.70;;;;;;;;;;5074982;28;20035;-76
2021/09/06 08:58:18;;;;;;;5.22;4.22;;;;;;;;;;5074832;28;20036;-68
2021/09/06 09:00:47;;;;;;;10.02;4.35;;;;;;;;;;5074552;28;20049;-82
2021/09/06 09:03:14;;;;;;;5.95;4.28;;;;;;;;;;5074920;28;20043;-69
2021/09/06 09:05:54;;;;;;;5.75;4.38;;;;;;;;;;5074700;28;20471;-69
2021/09/06 09:08:23;;;;;;;13.32;4.50;;;;;;;;;;5074426;28;20028;-69
2021/09/06 09:10:50;;;;;;;9.63;5.78;;;;;;;;;;5073859;28;20033;-82
2021/09/06 09:13:17;;;;;;;7.75;4.43;;;;;;;;;;5074420;28;20028;-69
2021/09/06 09:15:53;;;;;;;6.72;4.22;;;;;;;;;;5074415;28;20028;-82
2021/09/06 09:18:23;;;;;;;8.02;4.50;;;;;;;;;;5074169;28;20480;-69
2021/09/06 09:20:56;;;;;;;8.02;4.25;;;;;;;;;;5074125;28;20037;-69
2021/09/06 09:23:22;;;;;;;11.48;4.20;;;;;;;;;;5074034;28;20060;-78
2021/09/06 09:25:48;;;;;;;9.18;4.32;;;;;;;;;;5074166;28;20473;-70
2021/09/06 09:28:26;;;;;;;11.13;4.82;;;;;;;;;;5074252;28;20060;-69
2021/09/06 09:30:52;;;;;;;5.68;4.38;;;;;;;;;;5074030;28;20045;-73
2021/09/06 09:33:18;;;;;;;11.63;4.25;;;;;;;;;;5073932;28;20392;-82
2021/09/06 09:35:44;;;;;;;6.10;4.07;;;;;;;;;;5074003;28;20491;-82
2021/09/06 09:38:11;;;;;;;4.60;4.10;;;;;;;;;;5075424;28;20032;-82
2021/09/06 09:40:40;;;;;;;9.98;4.05;;;;;;;;;;5094348;28;20094;-69
2021/09/06 09:43:06;;;;;;;6.55;3.92;;;;;;;;;;5094140;28;20510;-69
2021/09/06 09:45:32;;;;;;;5.25;3.83;;;;;;;;;;5094036;28;20062;-70
2021/09/06 09:47:59;;;;;;;9.27;4.15;;;;;;;;;;5094247;28;20103;-82
2021/09/06 09:50:28;;;;;;;7.90;4.22;;;;;;;;;;5094043;28;20080;-82
2021/09/06 09:52:55;;;;;;;5.38;3.70;;;;;;;;;;5093852;28;20031;-69
2021/09/06 09:55:22;;;;;;;9.68;3.72;;;;;;;;;;5093889;28;20044;-69
2021/09/06 09:57:48;;;;;;;6.55;3.92;;;;;;;;;;5093881;28;20028;-82
2021/09/06 10:00:15;;;;;;;8.48;3.72;;;;;;;;;;5094015;28;20064;-69
2021/09/06 10:02:58;;;;;;;5.85;3.42;;;;;;;;;;5093869;28;20506;-77
2021/09/06 10:05:34;;;;;;;8.30;3.80;;;;;;;;;;5093869;28;20047;-81
2021/09/06 10:08:01;;;;;;;10.02;4.40;;;;;;;;;;5093706;28;20039;-69
2021/09/06 10:10:27;;;;;;;5.55;3.55;;;;;;;;;;5093760;28;20354;-68
2021/09/06 10:13:05;;;;;;;10.65;3.42;;;;;;;;;;5093701;28;20035;-81
2021/09/06 10:15:35;;;;;;;7.38;3.83;;;;;;;;;;5093372;28;20506;-69
2021/09/06 10:18:02;;;;;;;7.88;4.47;;;;;;;;;;5093791;28;20032;-69
2021/09/06 10:20:28;;;;;;;7.13;3.90;;;;;;;;;;5092983;28;20078;-73
2021/09/06 10:23:01;;;;;;;9.38;4.00;;;;;;;;;;5093133;28;20123;-70
2021/09/06 10:25:29;;;;;;;4.38;3.97;;;;;;;;;;5093672;28;20027;-69
2021/09/06 10:28:03;;;;;;;4.28;3.88;;;;;;;;;;5093537;28;20040;-83
2021/09/06 10:30:37;;;;;;;4.72;3.67;;;;;;;;;;5093148;28;20038;-69
2021/09/06 10:33:04;;;;;;;5.88;3.97;;;;;;;;;;5093369;28;20111;-69
2021/09/06 10:35:30;;;;;;;4.97;4.07;;;;;;;;;;5093234;28;20046;-69
2021/09/06 10:38:04;;;;;;;7.25;3.90;;;;;;;;;;5093300;28;20043;-69
2021/09/06 10:40:34;;;;;;;7.03;4.67;;;;;;;;;;5093276;28;20435;-69
2021/09/06 10:43:11;;;;;;;7.28;4.40;;;;;;;;;;5093132;28;20045;-69
2021/09/06 10:45:38;;;;;;;8.48;4.00;;;;;;;;;;5092986;28;20059;-69
2021/09/06 10:48:04;;;;;;;5.53;4.47;;;;;;;;;;5092704;28;20043;-82
2021/09/06 10:50:30;;;;;;;6.43;4.20;;;;;;;;;;5093085;28;20388;-70
2021/09/06 10:52:56;;;;;;;7.85;4.07;;;;;;;;;;5093029;28;20455;-69
2021/09/06 10:55:22;;;;;;;8.93;3.88;;;;;;;;;;5093056;28;20040;-77
2021/09/06 10:57:49;;;;;;;9.65;4.38;;;;;;;;;;5092979;28;20117;-69
2021/09/06 11:00:19;;;;;;;6.13;4.10;;;;;;;;;;5092723;28;20123;-69
2021/09/06 11:02:48;;;;;;;4.43;4.03;;;;;;;;;;5092431;28;20040;-82
2021/09/06 11:05:22;;;;;;;5.95;3.95;;;;;;;;;;5092964;28;20040;-69
2021/09/06 11:07:48;;;;;;;7.10;4.40;;;;;;;;;;5093035;28;20036;-69
2021/09/06 11:10:16;;;;;;;6.53;4.05;;;;;;;;;;5092902;28;20525;-69
2021/09/06 11:13:01;;;;;;;6.05;3.75;;;;;;;;;;5092795;28;20025;-73
2021/09/06 11:15:28;;;;;;;7.18;4.05;;;;;;;;;;5092574;28;20028;-69
2021/09/06 11:17:59;;;;;;;7.03;4.05;;;;;;;;;;5092671;28;20036;-69
2021/09/06 11:20:25;;;;;;;5.13;3.88;;;;;;;;;;5092968;28;20105;-82
2021/09/06 11:22:51;;;;;;;4.82;4.05;;;;;;;;;;5092849;28;20048;-69
2021/09/06 11:25:25;;;;;;;7.05;3.95;;;;;;;;;;5092624;28;20086;-83
2021/09/06 11:27:51;;;;;;;5.50;4.15;;;;;;;;;;5092716;28;20086;-69
2021/09/06 11:30:22;;;;;;;5.22;3.88;;;;;;;;;;5092719;28;20095;-69
2021/09/06 11:32:49;;;;;;;8.75;4.10;;;;;;;;;;5094386;28;20107;-69
2021/09/06 11:35:15;;;;;;;7.03;4.20;;;;;;;;;;5096361;28;20059;-69
2021/09/06 11:37:41;;;;;;;10.02;4.20;;;;;;;;;;5096360;28;20038;-76
2021/09/06 11:40:08;;;;;;;4.63;3.80;;;;;;;;;;5096171;28;20477;-70
2021/09/06 11:42:34;;;;;;;4.70;4.10;;;;;;;;;;5096514;28;20095;-69
2021/09/06 11:45:01;;;;;;;8.20;4.28;;;;;;;;;;5096366;28;20032;-69
2021/09/06 11:47:28;;;;;;;5.20;3.80;;;;;;;;;;5096215;28;20389;-82
2021/09/06 11:49:55;;;;;;;4.72;3.70;;;;;;;;;;5096146;28;20039;-69
2021/09/06 11:52:32;;;;;;;9.00;4.07;;;;;;;;;;5095866;28;20118;-80
2021/09/06 11:54:58;;;;;;;5.97;4.00;;;;;;;;;;5096031;28;20032;-69
2021/09/06 11:57:26;;;;;;;4.40;3.45;;;;;;;;;;5096014;28;20416;-83
2021/09/06 11:59:53;;;;;;;7.50;4.28;;;;;;;;;;5095982;28;20404;-69
2021/09/06 12:02:19;;;;;;;7.43;4.05;;;;;;;;;;5095852;28;20067;-69
2021/09/06 12:04:45;;;;;;;4.95;4.07;;;;;;;;;;5095861;28;20028;-82
2021/09/06 12:07:12;;;;;;;6.03;4.00;;;;;;;;;;5095979;28;20107;-82
2021/09/06 12:09:38;;;;;;;5.30;4.18;;;;;;;;;;5096104;28;20452;-69
2021/09/06 12:12:15;;;;;;;6.32;4.05;;;;;;;;;;5095661;28;20042;-81
2021/09/06 12:14:44;;;;;;;4.95;4.03;;;;;;;;;;5095864;28;20434;-69
2021/09/06 12:17:11;;;;;;;6.35;4.45;;;;;;;;;;5095707;28;20042;-82
2021/09/06 12:19:41;;;;;;;4.53;4.05;;;;;;;;;;5095536;28;20555;-69
2021/09/06 12:22:34;;;;;;;9.85;4.10;;;;;;;;;;5095480;28;20032;-83
2021/09/06 12:25:05;;;;;;;6.20;3.75;;;;;;;;;;5092156;28;20116;-69
2021/09/06 12:27:34;;;;;;;6.40;4.00;;;;;;;;;;5095597;28;20043;-78
2021/09/06 12:30:00;;;;;;;7.60;4.22;;;;;;;;;;5095525;28;20111;-69
2021/09/06 12:32:27;;;;;;;4.43;4.03;;;;;;;;;;5095462;28;20035;-83
2021/09/06 12:34:53;;;;;;;7.60;4.05;;;;;;;;;;5095474;28;20042;-70
2021/09/06 12:37:21;;;;;;;6.82;3.85;;;;;;;;;;5095309;28;20544;-82
2021/09/06 12:39:47;;;;;;;4.30;3.90;;;;;;;;;;5078287;28;20362;-70
2021/09/06 12:42:14;;;;;;;9.25;3.88;;;;;;;;;;5074752;28;20055;-70
2021/09/06 12:44:40;;;;;;;4.20;3.72;;;;;;;;;;5073562;28;20401;-70
2021/09/06 12:47:06;;;;;;;8.80;4.63;;;;;;;;;;5074664;28;20040;-79
2021/09/06 12:49:32;;;;;;;7.85;3.80;;;;;;;;;;5074517;28;20037;-70
2021/09/06 12:52:00;;;;;;;7.30;4.53;;;;;;;;;;5074705;28;20040;-70
2021/09/06 12:54:26;;;;;;;4.28;3.88;;;;;;;;;;5074390;28;20062;-82
2021/09/06 12:56:53;;;;;;;6.65;4.20;;;;;;;;;;5074242;28;20040;-70
2021/09/06 12:59:20;;;;;;;5.38;4.35;;;;;;;;;;5074655;28;20446;-69
2021/09/06 13:01:49;;;;;;;12.65;4.30;;;;;;;;;;5074528;28;20051;-82
2021/09/06 13:04:15;;;;;;;12.43;4.32;;;;;;;;;;5074615;28;20032;-70
2021/09/06 13:06:41;;;;;;;7.72;4.15;;;;;;;;;;5074434;28;20051;-70
2021/09/06 13:09:08;;;;;;;5.70;3.80;;;;;;;;;;5074288;28;20025;-83
2021/09/06 13:11:34;;;;;;;6.20;3.72;;;;;;;;;;5073954;28;20033;-70
2021/09/06 13:14:02;;;;;;;5.85;4.32;;;;;;;;;;5073984;28;20036;-70
2021/09/06 13:16:28;;;;;;;7.55;4.03;;;;;;;;;;5074357;28;20170;-71
2021/09/06 13:18:54;;;;;;;4.72;3.85;;;;;;;;;;5074222;28;20032;-83
2021/09/06 13:21:20;;;;;;;8.55;4.03;;;;;;;;;;5073845;28;20041;-71
2021/09/06 13:23:46;;;;;;;4.57;4.13;;;;;;;;;;5073896;28;20033;-85
2021/09/06 13:26:15;;;;;;;7.43;4.15;;;;;;;;;;5073893;28;20036;-85
2021/09/06 13:28:42;;;;;;;7.72;4.25;;;;;;;;;;5074207;28;20059;-71
2021/09/06 13:31:08;;;;;;;7.97;4.22;;;;;;;;;;5074065;28;20109;-86
2021/09/06 13:33:36;;;;;;;6.80;4.10;;;;;;;;;;5073931;28;20042;-71
2021/09/06 13:36:03;;;;;;;5.18;4.18;;;;;;;;;;5073810;28;20075;-81
2021/09/06 13:38:29;;;;;;;6.35;4.53;;;;;;;;;;5077727;28;20036;-71
2021/09/06 13:40:55;;;;;;;9.48;4.30;;;;;;;;;;5092343;28;20086;-71
2021/09/06 13:43:21;;;;;;;5.60;4.20;;;;;;;;;;5093926;28;20106;-71
2021/09/06 13:45:47;;;;;;;6.32;4.28;;;;;;;;;;5093710;28;20496;-70
2021/09/06 13:48:13;;;;;;;6.47;4.78;;;;;;;;;;5093129;28;20480;-73
2021/09/06 13:50:39;;;;;;;6.15;4.30;;;;;;;;;;5091747;28;20460;-71
2021/09/06 13:53:05;;;;;;;6.65;4.57;;;;;;;;;;5092644;28;20476;-72
2021/09/06 13:55:31;;;;;;;4.63;4.03;;;;;;;;;;5092951;28;20054;-71
2021/09/06 13:57:57;;;;;;;8.50;3.97;;;;;;;;;;5093465;28;20067;-71
2021/09/06 14:00:23;;;;;;;7.18;4.10;;;;;;;;;;5093897;28;20055;-70
2021/09/06 14:02:50;;;;;;;9.60;4.38;;;;;;;;;;5093534;28;20086;-86
2021/09/06 14:05:16;;;;;;;5.20;3.85;;;;;;;;;;5093667;28;20032;-74
2021/09/06 14:07:42;;;;;;;10.07;5.35;;;;;;;;;;5093776;28;20116;-72
2021/09/06 14:10:08;;;;;;;6.47;5.05;;;;;;;;;;5093132;28;20058;-72
2021/09/06 14:12:34;;;;;;;5.68;4.20;;;;;;;;;;5093412;28;20039;-71
2021/09/06 14:15:00;;;;;;;6.88;4.15;;;;;;;;;;5093296;28;20028;-81
2021/09/06 14:17:26;;;;;;;9.93;4.82;;;;;;;;;;5093396;28;20032;-72
2021/09/06 14:19:52;;;;;;;5.70;4.25;;;;;;;;;;5093254;28;20385;-70
2021/09/06 14:22:18;;;;;;;4.15;3.75;;;;;;;;;;5091726;28;20040;-70
2021/09/06 14:24:44;;;;;;;6.45;4.30;;;;;;;;;;5090443;28;20036;-70
2021/09/06 14:27:10;;;;;;;7.35;4.53;;;;;;;;;;5090473;28;20032;-71
2021/09/06 14:29:36;;;;;;;5.28;4.28;;;;;;;;;;5092271;28;20044;-71
2021/09/06 14:32:02;;;;;;;4.95;4.40;;;;;;;;;;5093488;28;20028;-85
2021/09/06 14:34:28;;;;;;;5.45;4.50;;;;;;;;;;5093392;28;20032;-71
2021/09/06 14:36:55;;;;;;;6.97;4.22;;;;;;;;;;5092520;28;20077;-71
2021/09/06 14:39:21;;;;;;;5.32;4.30;;;;;;;;;;5090384;28;20051;-71